createdAt,value
2018-06-17T00:02:11.968Z,22.30
2018-06-17T00:04:39.777Z,22.30
2018-06-17T00:07:07.379Z,22.20
2018-06-17T00:09:34.923Z,22.20
2018-06-17T00:12:02.528Z,22.20
2018-06-17T00:14:30.097Z,22.10
2018-06-17T00:16:57.700Z,22.10
2018-06-17T00:19:25.408Z,22.10
2018-06-17T00:21:53.030Z,22.00
2018-06-17T00:24:20.648Z,22.00
2018-06-17T00:26:48.210Z,22.00
2018-06-17T00:29:15.803Z,22.00
2018-06-17T00:31:43.420Z,22.00
2018-06-17T00:34:11.021Z,21.90
2018-06-17T00:36:38.690Z,21.90
2018-06-17T00:39:08.685Z,21.90
2018-06-17T00:41:36.236Z,21.90
2018-06-17T00:44:03.828Z,21.90
2018-06-17T00:46:31.383Z,21.90
2018-06-17T00:48:58.951Z,21.90
2018-06-17T00:51:26.496Z,21.90
2018-06-17T00:53:54.060Z,21.90
2018-06-17T00:56:21.628Z,21.80
2018-06-17T00:58:49.178Z,21.80
2018-06-17T01:03:44.392Z,21.80
2018-06-17T01:06:12.485Z,21.80
2018-06-17T01:08:40.049Z,21.80
2018-06-17T01:13:35.317Z,21.70
2018-06-17T01:16:02.922Z,21.70
2018-06-17T01:18:30.472Z,21.70
2018-06-17T01:20:58.108Z,21.60
2018-06-17T01:23:25.731Z,21.60
2018-06-17T01:25:53.295Z,21.60
2018-06-17T01:28:20.925Z,21.50
2018-06-17T01:33:16.252Z,21.40
2018-06-17T01:35:43.799Z,21.40
2018-06-17T01:38:11.441Z,21.40
2018-06-17T01:40:39.000Z,21.30
2018-06-17T01:43:06.759Z,21.30
2018-06-17T01:45:34.321Z,21.20
2018-06-17T01:48:01.900Z,21.20
2018-06-17T01:50:29.498Z,21.10
2018-06-17T01:52:57.077Z,21.10
2018-06-17T01:55:24.765Z,21.00
2018-06-17T01:57:52.351Z,21.00
2018-06-17T02:00:19.956Z,20.90
2018-06-17T02:02:47.521Z,20.90
2018-06-17T02:05:20.888Z,20.90
2018-06-17T02:07:54.277Z,20.80
2018-06-17T02:10:27.888Z,20.80
2018-06-17T02:12:55.937Z,20.70
2018-06-17T02:17:51.145Z,20.70
2018-06-17T02:20:18.709Z,20.70
2018-06-17T02:22:46.302Z,20.70
2018-06-17T02:25:13.872Z,20.70
2018-06-17T02:27:41.437Z,20.60
2018-06-17T02:30:09.000Z,20.60
2018-06-17T02:32:36.605Z,20.60
2018-06-17T02:35:04.262Z,20.60
2018-06-17T02:37:31.848Z,20.50
2018-06-17T02:39:59.407Z,20.50
2018-06-17T02:42:27.013Z,20.50
2018-06-17T02:45:00.336Z,20.50
2018-06-17T02:47:33.845Z,20.50
2018-06-17T02:50:07.265Z,20.40
2018-06-17T02:52:40.752Z,20.40
2018-06-17T02:57:36.883Z,20.40
2018-06-17T03:00:04.505Z,20.40
2018-06-17T03:02:32.113Z,20.40
2018-06-17T03:04:59.733Z,20.40
2018-06-17T03:07:27.325Z,20.40
2018-06-17T03:09:54.920Z,20.40
2018-06-17T03:12:22.546Z,20.40
2018-06-17T03:14:50.152Z,20.40
2018-06-17T03:19:45.332Z,20.40
2018-06-17T03:22:12.885Z,20.40
2018-06-17T03:24:46.212Z,20.40
2018-06-17T03:27:19.665Z,20.40
2018-06-17T03:29:53.037Z,20.40
2018-06-17T03:32:26.568Z,20.40
2018-06-17T03:35:00.062Z,20.40
2018-06-17T03:37:27.620Z,20.40
2018-06-17T03:39:55.209Z,20.40
2018-06-17T03:42:22.762Z,20.40
2018-06-17T03:44:50.385Z,20.40
2018-06-17T03:47:17.940Z,20.40
2018-06-17T03:49:45.588Z,20.50
2018-06-17T03:52:13.164Z,20.50
2018-06-17T03:54:40.741Z,20.50
2018-06-17T03:57:08.364Z,20.50
2018-06-17T03:59:35.937Z,20.50
2018-06-17T04:02:03.581Z,20.60
2018-06-17T04:04:35.769Z,20.60
2018-06-17T04:07:03.418Z,20.60
2018-06-17T04:09:30.996Z,20.60
2018-06-17T04:11:58.553Z,20.70
2018-06-17T04:16:53.866Z,20.70
2018-06-17T04:19:21.496Z,20.80
2018-06-17T04:21:49.141Z,20.90
2018-06-17T04:24:16.704Z,20.90
2018-06-17T04:26:44.303Z,21.00
2018-06-17T04:29:11.850Z,21.00
2018-06-17T04:31:39.406Z,21.10
2018-06-17T04:34:06.968Z,21.10
2018-06-17T04:36:34.568Z,21.20
2018-06-17T04:41:32.653Z,21.30
2018-06-17T04:44:00.193Z,21.30
2018-06-17T04:46:27.769Z,21.40
2018-06-17T04:48:55.410Z,21.50
2018-06-17T04:51:22.992Z,21.50
2018-06-17T04:53:50.581Z,21.50
2018-06-17T04:56:18.156Z,21.60
2018-06-17T04:58:45.784Z,21.60
2018-06-17T05:01:13.581Z,21.70
2018-06-17T05:03:41.168Z,21.70
2018-06-17T05:06:08.743Z,21.70
2018-06-17T05:08:36.316Z,21.80
2018-06-17T05:11:04.136Z,21.80
2018-06-17T05:13:31.841Z,21.90
2018-06-17T05:15:59.505Z,21.90
2018-06-17T05:18:27.093Z,21.90
2018-06-17T05:20:54.673Z,22.00
2018-06-17T05:23:22.340Z,22.00
2018-06-17T05:25:50.073Z,22.00
2018-06-17T05:28:17.671Z,22.10
2018-06-17T05:33:13.573Z,22.20
2018-06-17T05:35:42.524Z,22.10
2018-06-17T05:38:10.166Z,22.20
2018-06-17T05:40:38.010Z,22.20
2018-06-17T05:45:34.598Z,22.30
2018-06-17T05:48:02.325Z,22.40
2018-06-17T05:50:30.040Z,22.40
2018-06-17T05:52:57.752Z,22.40
2018-06-17T05:55:25.639Z,22.40
2018-06-17T05:57:53.284Z,22.50
2018-06-17T06:00:20.994Z,22.50
2018-06-17T06:02:48.622Z,22.60
2018-06-17T06:05:16.268Z,22.60
2018-06-17T06:07:43.977Z,22.70
2018-06-17T06:10:11.660Z,22.70
2018-06-17T06:12:39.262Z,22.80
2018-06-17T06:15:06.882Z,22.90
2018-06-17T06:17:34.481Z,23.10
2018-06-17T06:20:02.096Z,23.30
2018-06-17T06:22:29.736Z,23.50
2018-06-17T06:24:57.342Z,23.80
2018-06-17T06:27:25.009Z,24.10
2018-06-17T06:29:52.645Z,24.40
2018-06-17T06:32:20.228Z,24.70
2018-06-17T06:34:47.861Z,25.10
2018-06-17T06:37:15.452Z,25.40
2018-06-17T06:39:43.010Z,25.80
2018-06-17T06:42:10.601Z,26.20
2018-06-17T06:44:38.224Z,26.60
2018-06-17T06:47:05.861Z,26.90
2018-06-17T06:49:33.520Z,27.20
2018-06-17T06:52:01.075Z,27.50
2018-06-17T06:54:28.672Z,27.80
2018-06-17T06:56:56.589Z,28.00
2018-06-17T06:59:24.233Z,28.20
2018-06-17T07:04:48.772Z,28.60
2018-06-17T07:07:34.165Z,28.90
2018-06-17T07:10:19.441Z,29.10
2018-06-17T07:12:47.037Z,29.30
2018-06-17T07:15:14.592Z,29.50
2018-06-17T07:17:59.563Z,29.70
2018-06-17T07:20:27.162Z,29.90
2018-06-17T07:22:54.708Z,30.10
2018-06-17T07:27:39.513Z,30.30
2018-06-17T07:30:07.054Z,30.60
2018-06-17T07:32:34.645Z,31.40
2018-06-17T07:35:02.159Z,31.80
2018-06-17T07:37:29.729Z,32.20
2018-06-17T07:40:26.222Z,32.60
2018-06-17T07:42:53.772Z,33.00
2018-06-17T07:45:21.348Z,33.50
2018-06-17T07:47:48.885Z,33.90
2018-06-17T07:50:34.157Z,34.30
2018-06-17T07:53:15.255Z,34.80
2018-06-17T07:55:42.812Z,35.30
2018-06-17T07:58:10.514Z,35.70
2018-06-17T08:00:38.282Z,36.10
2018-06-17T08:03:05.805Z,36.50
2018-06-17T08:05:33.315Z,36.90
2018-06-17T08:08:00.817Z,37.30
2018-06-17T08:10:28.402Z,37.70
2018-06-17T08:12:55.892Z,38.00
2018-06-17T08:15:23.945Z,38.30
2018-06-17T08:17:52.881Z,38.60
2018-06-17T08:20:20.556Z,38.90
2018-06-17T08:22:51.688Z,39.20
2018-06-17T08:25:19.746Z,39.40
2018-06-17T08:27:49.625Z,39.70
2018-06-17T08:30:17.890Z,39.90
2018-06-17T08:32:46.180Z,40.10
2018-06-17T08:35:14.371Z,40.30
2018-06-17T08:37:41.920Z,40.60
2018-06-17T08:40:20.116Z,40.80
2018-06-17T08:42:48.677Z,41.10
2018-06-17T08:45:16.747Z,41.40
2018-06-17T08:47:44.335Z,41.60
2018-06-17T08:50:11.860Z,41.90
2018-06-17T08:55:07.305Z,42.40
2018-06-17T08:57:34.912Z,42.60
2018-06-17T09:00:02.795Z,42.90
2018-06-17T09:02:30.405Z,43.00
2018-06-17T09:04:57.993Z,43.10
2018-06-17T09:07:25.982Z,43.20
2018-06-17T09:09:54.141Z,43.30
2018-06-17T09:12:21.827Z,43.50
2018-06-17T09:14:49.685Z,43.60
2018-06-17T09:17:17.684Z,43.70
2018-06-17T09:19:45.672Z,43.70
2018-06-17T09:22:13.448Z,43.50
2018-06-17T09:24:41.017Z,43.50
2018-06-17T09:27:08.582Z,43.30
2018-06-17T09:29:36.265Z,43.30
2018-06-17T09:32:05.986Z,43.30
2018-06-17T09:34:33.445Z,43.40
2018-06-17T09:37:01.396Z,43.50
2018-06-17T09:39:29.007Z,43.70
2018-06-17T09:41:56.596Z,43.80
2018-06-17T09:44:24.216Z,43.80
2018-06-17T09:46:51.794Z,43.90
2018-06-17T09:49:19.376Z,44.00
2018-06-17T09:51:47.067Z,44.00
2018-06-17T09:54:14.657Z,44.10
2018-06-17T09:56:42.289Z,44.10
2018-06-17T09:59:09.897Z,44.00
2018-06-17T10:01:37.681Z,43.80
2018-06-17T10:04:05.438Z,43.60
2018-06-17T10:06:33.101Z,43.20
2018-06-17T10:09:00.683Z,42.90
2018-06-17T10:11:28.599Z,42.40
2018-06-17T10:13:56.685Z,41.90
2018-06-17T10:16:24.681Z,41.40
2018-06-17T10:18:52.459Z,40.90
2018-06-17T10:21:20.147Z,40.50
2018-06-17T10:23:47.945Z,40.10
2018-06-17T10:26:15.576Z,39.60
2018-06-17T10:28:43.142Z,39.20
2018-06-17T10:31:10.720Z,38.80
2018-06-17T10:33:38.446Z,38.50
2018-06-17T10:36:06.041Z,38.20
2018-06-17T10:38:33.623Z,38.10
2018-06-17T10:41:01.193Z,38.10
2018-06-17T10:43:29.783Z,38.20
2018-06-17T10:45:57.389Z,38.30
2018-06-17T10:48:24.957Z,38.60
2018-06-17T10:50:52.570Z,38.90
2018-06-17T10:53:20.173Z,39.10
2018-06-17T10:55:47.824Z,39.40
2018-06-17T10:58:15.368Z,39.60
2018-06-17T11:00:42.953Z,39.80
2018-06-17T11:03:10.553Z,39.80
2018-06-17T11:05:38.212Z,39.70
2018-06-17T11:08:05.776Z,39.60
2018-06-17T11:10:33.461Z,39.40
2018-06-17T11:13:01.094Z,39.10
2018-06-17T11:15:28.613Z,38.90
2018-06-17T11:17:56.232Z,38.60
2018-06-17T11:20:23.801Z,38.30
2018-06-17T11:22:51.421Z,38.10
2018-06-17T11:25:19.028Z,37.90
2018-06-17T11:27:46.596Z,37.60
2018-06-17T11:30:14.186Z,37.40
2018-06-17T11:32:41.776Z,37.20
2018-06-17T11:35:09.881Z,37.20
2018-06-17T11:37:37.503Z,37.10
2018-06-17T11:40:05.125Z,37.20
2018-06-17T11:42:32.688Z,37.30
2018-06-17T11:45:01.298Z,37.50
2018-06-17T11:47:28.979Z,37.70
2018-06-17T11:49:56.578Z,38.00
2018-06-17T11:52:24.182Z,38.30
2018-06-17T11:54:52.253Z,38.50
2018-06-17T11:57:20.316Z,38.70
2018-06-17T11:59:48.660Z,38.80
2018-06-17T12:02:17.825Z,38.90
2018-06-17T12:04:45.685Z,38.90
2018-06-17T12:07:14.400Z,38.90
2018-06-17T12:09:42.171Z,38.90
2018-06-17T12:12:09.813Z,38.80
2018-06-17T12:14:37.550Z,38.70
2018-06-17T12:17:05.253Z,38.50
2018-06-17T12:19:33.017Z,38.30
2018-06-17T12:22:00.895Z,38.10
2018-06-17T12:24:28.569Z,38.00
2018-06-17T12:26:56.217Z,37.90
2018-06-17T12:29:23.898Z,37.80
2018-06-17T12:31:51.495Z,37.80
2018-06-17T12:34:19.092Z,37.70
2018-06-17T12:36:46.737Z,37.60
2018-06-17T12:39:14.851Z,37.50
2018-06-17T12:41:43.183Z,37.40
2018-06-17T12:44:11.063Z,37.30
2018-06-17T12:46:39.337Z,37.30
2018-06-17T12:49:07.948Z,37.30
2018-06-17T12:51:35.781Z,37.30
2018-06-17T12:54:03.641Z,37.30
2018-06-17T12:56:32.142Z,37.40
2018-06-17T12:58:59.842Z,37.50
2018-06-17T13:01:29.157Z,37.50
2018-06-17T13:03:58.093Z,37.60
2018-06-17T13:06:26.180Z,37.60
2018-06-17T13:08:54.707Z,37.70
2018-06-17T13:11:22.885Z,37.60
2018-06-17T13:13:51.444Z,37.60
2018-06-17T13:18:46.926Z,37.40
2018-06-17T13:21:14.508Z,37.20
2018-06-17T13:23:42.085Z,37.10
2018-06-17T13:26:09.669Z,36.80
2018-06-17T13:28:37.337Z,36.50
2018-06-17T13:31:06.485Z,36.20
2018-06-17T13:33:34.920Z,35.90
2018-06-17T13:38:30.449Z,34.90
2018-06-17T13:40:58.138Z,34.50
2018-06-17T13:43:25.701Z,34.00
2018-06-17T13:45:53.309Z,33.60
2018-06-17T13:48:20.943Z,33.20
2018-06-17T13:50:48.558Z,32.80
2018-06-17T13:53:16.206Z,32.40
2018-06-17T13:55:43.775Z,32.00
2018-06-17T13:58:11.399Z,31.60
2018-06-17T14:00:38.953Z,31.30
2018-06-17T14:03:06.521Z,31.00
2018-06-17T14:08:02.431Z,30.50
2018-06-17T14:10:30.028Z,30.20
2018-06-17T14:12:57.708Z,29.80
2018-06-17T14:15:26.787Z,29.60
2018-06-17T14:17:54.814Z,29.30
2018-06-17T14:20:22.432Z,29.00
2018-06-17T14:22:50.339Z,28.70
2018-06-17T14:25:17.943Z,28.50
2018-06-17T14:27:45.586Z,28.20
2018-06-17T14:30:13.354Z,28.00
2018-06-17T14:32:40.978Z,27.80
2018-06-17T14:35:08.586Z,27.60
2018-06-17T14:37:36.173Z,27.40
2018-06-17T14:40:03.849Z,27.20
2018-06-17T14:42:37.234Z,27.00
2018-06-17T14:45:10.697Z,26.80
2018-06-17T14:47:43.936Z,26.60
2018-06-17T14:50:17.243Z,26.40
2018-06-17T14:52:50.744Z,26.20
2018-06-17T14:55:18.371Z,26.10
2018-06-17T14:57:46.089Z,25.90
2018-06-17T15:00:13.734Z,25.80
2018-06-17T15:02:41.433Z,25.70
2018-06-17T15:05:09.085Z,25.70
2018-06-17T15:07:36.936Z,25.60
2018-06-17T15:10:04.672Z,25.50
2018-06-17T15:12:32.284Z,25.50
2018-06-17T15:15:00.004Z,25.40
2018-06-17T15:17:27.610Z,25.40
2018-06-17T15:19:55.270Z,25.30
2018-06-17T15:22:23.235Z,25.30
2018-06-17T15:24:50.852Z,25.30
2018-06-17T15:27:18.454Z,25.30
2018-06-17T15:29:46.143Z,25.20
2018-06-17T15:32:19.550Z,25.20
2018-06-17T15:34:52.870Z,25.30
2018-06-17T15:37:26.152Z,25.20
2018-06-17T15:39:55.467Z,25.30
2018-06-17T15:42:23.141Z,25.30
2018-06-17T15:44:50.792Z,25.30
2018-06-17T15:47:18.757Z,25.30
2018-06-17T15:49:46.468Z,25.30
2018-06-17T15:52:14.127Z,25.30
2018-06-17T15:54:41.741Z,25.30
2018-06-17T15:57:09.418Z,25.30
2018-06-17T15:59:37.072Z,25.30
2018-06-17T16:02:04.752Z,25.30
2018-06-17T16:04:32.372Z,25.30
2018-06-17T16:07:00.096Z,25.20
2018-06-17T16:09:27.720Z,25.20
2018-06-17T16:12:01.027Z,25.20
2018-06-17T16:14:34.586Z,25.10
2018-06-17T16:17:07.903Z,25.10
2018-06-17T16:19:41.310Z,25.10
2018-06-17T16:22:08.925Z,25.10
2018-06-17T16:24:36.557Z,25.10
2018-06-17T16:27:04.229Z,25.10
2018-06-17T16:29:38.610Z,25.00
2018-06-17T16:32:07.204Z,25.00
2018-06-17T16:34:34.828Z,25.00
2018-06-17T16:37:02.503Z,25.10
2018-06-17T16:39:30.131Z,25.10
2018-06-17T16:41:57.777Z,25.10
2018-06-17T16:44:25.468Z,25.10
2018-06-17T16:46:53.105Z,25.20
2018-06-17T16:49:20.676Z,25.20
2018-06-17T16:51:54.127Z,25.30
2018-06-17T16:55:27.148Z,25.30
2018-06-17T16:58:00.440Z,25.40
2018-06-17T17:00:28.346Z,25.50
2018-06-17T17:02:56.361Z,25.50
2018-06-17T17:05:24.048Z,25.50
2018-06-17T17:07:51.669Z,25.60
2018-06-17T17:10:19.438Z,25.60
2018-06-17T17:12:47.054Z,25.70
2018-06-17T17:15:14.697Z,25.70
2018-06-17T17:20:10.132Z,25.70
2018-06-17T17:25:05.459Z,25.80
2018-06-17T17:27:33.033Z,25.80
2018-06-17T17:30:00.645Z,25.80
2018-06-17T17:32:35.237Z,25.80
2018-06-17T17:35:08.756Z,25.70
2018-06-17T17:37:42.077Z,25.70
2018-06-17T17:40:15.502Z,25.60
2018-06-17T17:42:43.212Z,25.60
2018-06-17T17:45:15.433Z,25.50
2018-06-17T17:47:43.185Z,25.50
2018-06-17T17:52:38.635Z,25.40
2018-06-17T17:55:06.848Z,25.40
2018-06-17T17:57:34.737Z,25.40
2018-06-17T18:00:02.614Z,25.30
2018-06-17T18:02:31.260Z,25.30
2018-06-17T18:04:59.004Z,25.30
2018-06-17T18:07:27.433Z,25.20
2018-06-17T18:09:55.301Z,25.20
2018-06-17T18:12:23.587Z,25.20
2018-06-17T18:14:51.321Z,25.10
2018-06-17T18:17:19.005Z,25.10
2018-06-17T18:19:47.605Z,25.10
2018-06-17T18:22:15.329Z,25.10
2018-06-17T18:24:47.791Z,25.10
2018-06-17T18:27:21.300Z,25.10
2018-06-17T18:29:54.786Z,25.10
2018-06-17T18:32:28.507Z,25.00
2018-06-17T18:35:02.468Z,25.10
2018-06-17T18:37:30.272Z,25.00
2018-06-17T18:39:58.633Z,25.10
2018-06-17T18:42:26.442Z,25.10
2018-06-17T18:44:54.962Z,25.10
2018-06-17T18:47:22.865Z,25.10
2018-06-17T18:49:50.896Z,25.10
2018-06-17T18:52:18.548Z,25.10
2018-06-17T18:54:46.182Z,25.10
2018-06-17T18:57:13.975Z,25.10
2018-06-17T18:59:41.714Z,25.10
2018-06-17T19:02:09.753Z,25.10
2018-06-17T19:04:37.468Z,25.10
2018-06-17T19:07:05.137Z,25.10
2018-06-17T19:09:38.440Z,25.00
2018-06-17T19:12:11.993Z,25.00
2018-06-17T19:14:45.438Z,24.90
2018-06-17T19:17:19.043Z,24.90
2018-06-17T19:19:46.692Z,24.80
2018-06-17T19:22:14.315Z,24.80
2018-06-17T19:24:41.974Z,24.70
2018-06-17T19:27:10.564Z,24.70
2018-06-17T19:29:38.318Z,24.60
2018-06-17T19:32:06.293Z,24.60
2018-06-17T19:34:34.725Z,24.50
2018-06-17T19:37:03.700Z,24.50
2018-06-17T19:39:32.140Z,24.40
2018-06-17T19:41:59.993Z,24.40
2018-06-17T19:44:28.283Z,24.30
2018-06-17T19:46:56.952Z,24.30
2018-06-17T19:49:30.246Z,24.30
2018-06-17T19:52:04.361Z,24.20
2018-06-17T19:54:38.101Z,24.20
2018-06-17T19:57:11.681Z,24.10
2018-06-17T19:59:45.972Z,24.10
2018-06-17T20:02:13.867Z,24.00
2018-06-17T20:04:42.434Z,24.00
2018-06-17T20:07:10.597Z,23.90
2018-06-17T20:09:39.017Z,23.90
2018-06-17T20:12:06.843Z,23.80
2018-06-17T20:14:35.022Z,23.80
2018-06-17T20:17:03.062Z,23.70
2018-06-17T20:19:31.793Z,23.70
2018-06-17T20:21:59.808Z,23.60
2018-06-17T20:24:28.359Z,23.60
2018-06-17T20:26:56.080Z,23.60
2018-06-17T20:29:24.110Z,23.50
2018-06-17T20:31:57.527Z,23.50
2018-06-17T20:37:06.375Z,23.40
2018-06-17T20:39:39.851Z,23.30
2018-06-17T20:42:13.371Z,23.30
2018-06-17T20:44:41.504Z,23.20
2018-06-17T20:47:11.402Z,23.20
2018-06-17T20:49:40.518Z,23.10
2018-06-17T20:52:08.436Z,23.10
2018-06-17T20:54:38.416Z,23.00
2018-06-17T20:57:06.943Z,23.00
2018-06-17T20:59:35.392Z,23.00
2018-06-17T21:02:03.312Z,22.90
2018-06-17T21:04:31.617Z,22.90
2018-06-17T21:06:59.921Z,22.90
2018-06-17T21:09:27.623Z,22.80
2018-06-17T21:11:56.817Z,22.80
2018-06-17T21:14:25.509Z,22.80
2018-06-17T21:16:54.853Z,22.80
2018-06-17T21:19:28.956Z,22.70
2018-06-17T21:22:03.563Z,22.70
2018-06-17T21:24:37.824Z,22.70
2018-06-17T21:27:12.083Z,22.70
2018-06-17T21:29:39.930Z,22.70
2018-06-17T21:32:07.720Z,22.70
2018-06-17T21:34:35.281Z,22.60
2018-06-17T21:37:02.921Z,22.60
2018-06-17T21:39:30.456Z,22.60
2018-06-17T21:41:58.066Z,22.60
2018-06-17T21:44:25.686Z,22.60
2018-06-17T21:46:53.327Z,22.60
2018-06-17T21:49:22.298Z,22.60
2018-06-17T21:51:49.993Z,22.60
2018-06-17T21:56:45.310Z,22.70
2018-06-17T21:59:13.225Z,22.70
2018-06-17T22:01:41.916Z,22.70
2018-06-17T22:04:15.270Z,22.70
2018-06-17T22:06:42.939Z,22.80
2018-06-17T22:09:16.389Z,22.80
2018-06-17T22:11:49.871Z,22.80
2018-06-17T22:14:23.199Z,22.80
2018-06-17T22:16:56.761Z,22.80
2018-06-17T22:19:24.336Z,22.80
2018-06-17T22:21:51.916Z,22.80
2018-06-17T22:24:19.532Z,22.80
2018-06-17T22:26:47.225Z,22.80
2018-06-17T22:29:14.897Z,22.90
2018-06-17T22:31:42.528Z,22.90
2018-06-17T22:34:10.156Z,22.80
2018-06-17T22:36:37.860Z,22.90
2018-06-17T22:39:07.482Z,22.90
2018-06-17T22:41:35.060Z,22.90
2018-06-17T22:44:02.689Z,22.90
2018-06-17T22:46:30.332Z,22.90
2018-06-17T22:48:57.940Z,22.90
2018-06-17T22:51:25.617Z,22.90
2018-06-17T22:54:10.921Z,22.90
2018-06-17T22:56:44.232Z,22.90
2018-06-17T22:59:17.621Z,22.90
2018-06-17T23:01:51.418Z,22.90
2018-06-17T23:04:24.809Z,22.90
2018-06-17T23:07:59.753Z,22.90
2018-06-17T23:10:27.373Z,22.90
2018-06-17T23:12:54.959Z,22.90
2018-06-17T23:15:22.559Z,22.80
2018-06-17T23:17:50.165Z,22.80
2018-06-17T23:20:17.790Z,22.80
2018-06-17T23:22:45.394Z,22.80
2018-06-17T23:25:12.993Z,22.80
2018-06-17T23:27:40.565Z,22.80
2018-06-17T23:30:08.138Z,22.80
2018-06-17T23:32:35.734Z,22.80
2018-06-17T23:35:03.347Z,22.80
2018-06-17T23:42:26.237Z,22.80
2018-06-17T23:44:53.850Z,22.80
2018-06-17T23:47:27.299Z,22.80
2018-06-17T23:50:00.653Z,22.80
2018-06-17T23:52:34.053Z,22.80
2018-06-17T23:55:07.484Z,22.80
2018-06-17T23:57:35.110Z,22.70
